Time;durP1;ratioP1;P1;durP2;ratioP2;P2;SDS_P1;SDS_P2;PMS_P1;PMS_P2;Temp;Humidity;BMP_temperature;BMP_pressure;BME280_temperature;BME280_humidity;BME280_pressure;Samples;Min_cycle;Max_cycle;Signal;HPM_P1;HPM_P2
2024/02/26 00:01:53;;;;;;;2.40;1.90;;;7.30;99.90;;;;;;476701;249;28048;-73
2024/02/26 00:03:59;;;;;;;2.80;1.70;;;7.30;99.90;;;;;;476687;249;29639;-73
2024/02/26 00:05:56;;;;;;;1.70;1.60;;;7.30;99.90;;;;;;476317;249;28383;-73
2024/02/26 00:07:57;;;;;;;1.70;1.60;;;7.20;99.90;;;;;;476681;249;28632;-75
2024/02/26 00:09:58;;;;;;;1.43;1.33;;;7.20;99.90;;;;;;476734;249;28894;-73
2024/02/26 00:11:59;;;;;;;1.40;1.30;;;7.20;99.90;;;;;;476562;249;28426;-73
2024/02/26 00:14:00;;;;;;;1.50;1.40;;;7.20;99.90;;;;;;476645;245;28171;-73
2024/02/26 00:16:02;;;;;;;2.00;1.80;;;7.20;99.90;;;;;;476707;249;28055;-73
2024/02/26 00:18:03;;;;;;;1.30;1.30;;;7.20;99.90;;;;;;476672;249;28141;-74
2024/02/26 00:20:08;;;;;;;1.67;1.57;;;7.20;99.90;;;;;;476717;249;27618;-73
2024/02/26 00:22:05;;;;;;;2.63;2.43;;;7.30;99.90;;;;;;476407;245;28061;-73
2024/02/26 00:24:07;;;;;;;1.63;1.43;;;7.30;99.90;;;;;;476658;249;28795;-73
2024/02/26 00:26:08;;;;;;;1.83;1.33;;;7.40;99.90;;;;;;476690;249;28043;-73
2024/02/26 00:28:09;;;;;;;1.60;1.50;;;7.40;99.90;;;;;;476521;245;27714;-76
2024/02/26 00:30:11;;;;;;;1.30;1.23;;;7.40;99.90;;;;;;476697;249;28001;-73
2024/02/26 00:32:12;;;;;;;2.03;1.57;;;7.40;99.90;;;;;;476595;249;27955;-74
2024/02/26 00:34:13;;;;;;;4.40;1.40;;;7.30;99.90;;;;;;476594;245;28392;-73
2024/02/26 00:36:14;;;;;;;2.30;1.50;;;7.30;99.90;;;;;;476702;249;28019;-73
2024/02/26 00:38:15;;;;;;;1.60;1.50;;;7.40;99.90;;;;;;476669;249;28234;-73
2024/02/26 00:40:17;;;;;;;1.40;1.30;;;7.30;99.90;;;;;;476671;249;28008;-73
2024/02/26 00:42:18;;;;;;;1.20;1.20;;;7.30;99.90;;;;;;476650;249;28581;-73
2024/02/26 00:44:19;;;;;;;1.63;1.20;;;7.20;99.90;;;;;;476700;249;28606;-75
2024/02/26 00:46:20;;;;;;;1.70;1.30;;;7.20;99.90;;;;;;476732;249;28335;-72
2024/02/26 00:48:22;;;;;;;1.60;1.50;;;7.20;99.90;;;;;;476697;249;28647;-73
2024/02/26 00:50:23;;;;;;;1.40;1.30;;;7.10;99.90;;;;;;476672;249;28218;-73
2024/02/26 00:52:24;;;;;;;2.30;1.33;;;7.20;99.90;;;;;;476667;249;28214;-73
2024/02/26 00:54:25;;;;;;;2.53;1.43;;;7.10;99.90;;;;;;476713;249;28051;-75
2024/02/26 00:56:27;;;;;;;1.80;1.60;;;7.10;99.90;;;;;;476712;249;27994;-72
2024/02/26 00:58:28;;;;;;;1.70;1.60;;;7.10;99.90;;;;;;476648;249;28049;-73
2024/02/26 01:00:29;;;;;;;1.70;1.60;;;7.00;99.90;;;;;;476665;249;28033;-73
2024/02/26 01:02:30;;;;;;;1.47;1.37;;;6.90;99.90;;;;;;476725;249;27967;-73
2024/02/26 01:04:32;;;;;;;1.70;1.60;;;6.90;99.90;;;;;;476744;249;28139;-75
2024/02/26 01:06:33;;;;;;;1.43;1.33;;;6.80;99.90;;;;;;476655;249;28054;-73
2024/02/26 01:08:35;;;;;;;1.63;1.53;;;6.80;99.90;;;;;;476667;249;27701;-73
2024/02/26 01:10:35;;;;;;;1.47;1.47;;;6.70;99.90;;;;;;476558;249;27965;-73
2024/02/26 01:12:37;;;;;;;1.93;1.83;;;6.70;99.90;;;;;;476656;249;27861;-73
2024/02/26 01:14:38;;;;;;;1.47;1.37;;;6.70;99.90;;;;;;476683;249;28120;-74
2024/02/26 01:16:39;;;;;;;1.40;1.40;;;6.70;99.90;;;;;;476686;245;27952;-73
2024/02/26 01:18:40;;;;;;;1.63;1.53;;;6.60;99.90;;;;;;476657;249;28414;-73
2024/02/26 01:20:42;;;;;;;1.40;1.30;;;6.60;99.90;;;;;;476734;249;28006;-76
2024/02/26 01:22:43;;;;;;;1.53;1.43;;;6.60;99.90;;;;;;476723;245;28077;-73
2024/02/26 01:24:44;;;;;;;2.30;1.90;;;6.60;99.90;;;;;;476671;249;27935;-73
2024/02/26 01:26:45;;;;;;;1.80;1.40;;;6.60;99.90;;;;;;476631;249;28106;-73
2024/02/26 01:28:47;;;;;;;1.60;1.50;;;6.60;99.90;;;;;;476646;249;29311;-73
2024/02/26 01:30:48;;;;;;;1.57;1.47;;;6.60;99.90;;;;;;476708;249;28486;-73
2024/02/26 01:32:49;;;;;;;1.63;1.47;;;6.60;99.90;;;;;;476686;249;28570;-73
2024/02/26 01:34:50;;;;;;;1.60;1.50;;;6.60;99.90;;;;;;476669;249;28404;-74
2024/02/26 01:36:52;;;;;;;1.67;1.57;;;6.50;99.90;;;;;;476624;249;28190;-73
2024/02/26 01:38:53;;;;;;;2.90;1.43;;;6.50;99.90;;;;;;476613;249;27678;-74
2024/02/26 01:40:54;;;;;;;1.50;1.40;;;6.60;99.90;;;;;;476684;249;27982;-74
2024/02/26 01:42:55;;;;;;;1.63;1.53;;;6.60;99.90;;;;;;476671;249;28872;-73
2024/02/26 01:44:57;;;;;;;1.50;1.40;;;6.60;99.90;;;;;;476671;245;27661;-73
2024/02/26 01:46:58;;;;;;;1.43;1.33;;;6.60;99.90;;;;;;476584;249;28062;-73
2024/02/26 01:48:59;;;;;;;1.30;1.20;;;6.60;99.90;;;;;;476753;249;27523;-73
2024/02/26 01:51:00;;;;;;;1.30;1.20;;;6.60;99.90;;;;;;476696;249;28209;-73
2024/02/26 01:53:02;;;;;;;1.10;1.10;;;6.50;99.90;;;;;;476686;249;27571;-73
2024/02/26 01:55:03;;;;;;;1.33;1.23;;;6.50;99.90;;;;;;476645;249;28052;-73
2024/02/26 01:57:04;;;;;;;2.00;1.47;;;6.60;99.90;;;;;;476548;249;28930;-75
2024/02/26 01:59:05;;;;;;;1.50;1.40;;;6.50;99.90;;;;;;476688;249;29030;-73
2024/02/26 02:01:07;;;;;;;4.73;1.47;;;6.50;99.90;;;;;;476667;249;28357;-74
2024/02/26 02:03:08;;;;;;;1.93;1.83;;;6.50;99.90;;;;;;476664;249;29373;-73
2024/02/26 02:05:09;;;;;;;1.87;1.40;;;6.50;99.90;;;;;;476764;249;29048;-73
2024/02/26 02:07:10;;;;;;;1.23;1.20;;;6.40;99.90;;;;;;476676;249;28889;-75
2024/02/26 02:09:12;;;;;;;2.13;1.30;;;6.40;99.90;;;;;;476718;249;27996;-73
2024/02/26 02:11:14;;;;;;;1.50;1.40;;;6.40;99.90;;;;;;476703;249;28140;-73
2024/02/26 02:13:14;;;;;;;1.60;1.50;;;6.40;99.90;;;;;;476474;249;27581;-73
2024/02/26 02:15:15;;;;;;;1.47;1.20;;;6.40;99.90;;;;;;476660;249;28141;-73
2024/02/26 02:17:17;;;;;;;1.40;1.30;;;6.40;99.90;;;;;;476622;249;28390;-74
2024/02/26 02:19:18;;;;;;;1.53;1.43;;;6.40;99.90;;;;;;476652;249;28030;-73
2024/02/26 02:21:19;;;;;;;6.33;1.87;;;6.30;99.90;;;;;;476630;249;27953;-73
2024/02/26 02:23:20;;;;;;;1.57;1.47;;;6.20;99.90;;;;;;476732;249;28367;-76
2024/02/26 02:25:22;;;;;;;2.13;1.93;;;6.20;99.90;;;;;;476719;249;28024;-73
2024/02/26 02:27:23;;;;;;;1.40;1.37;;;6.20;99.90;;;;;;476556;249;28103;-74
2024/02/26 02:29:24;;;;;;;3.45;1.48;;;6.20;99.90;;;;;;476699;249;28146;-71
2024/02/26 02:31:25;;;;;;;2.00;1.80;;;6.20;99.90;;;;;;476736;249;28145;-74
2024/02/26 02:33:27;;;;;;;1.80;1.50;;;6.20;99.90;;;;;;476728;249;27666;-75
2024/02/26 02:35:28;;;;;;;3.80;1.53;;;6.10;99.90;;;;;;476707;249;28888;-74
2024/02/26 02:37:29;;;;;;;2.43;1.50;;;6.10;99.90;;;;;;476695;249;28923;-74
2024/02/26 02:39:30;;;;;;;1.60;1.50;;;6.10;99.90;;;;;;476669;249;28917;-71
2024/02/26 02:41:32;;;;;;;2.25;1.75;;;6.10;99.90;;;;;;476739;249;27538;-71
2024/02/26 02:43:33;;;;;;;1.57;1.47;;;6.00;99.90;;;;;;476710;249;27586;-72
2024/02/26 02:45:34;;;;;;;1.70;1.60;;;6.00;99.90;;;;;;476720;249;28347;-73
2024/02/26 02:47:35;;;;;;;1.50;1.40;;;6.10;99.90;;;;;;476645;249;28117;-71
2024/02/26 02:49:37;;;;;;;2.53;2.33;;;6.10;99.90;;;;;;476722;249;29579;-73
2024/02/26 02:51:38;;;;;;;2.30;1.70;;;6.00;99.90;;;;;;476730;245;29345;-72
2024/02/26 02:53:39;;;;;;;1.45;1.33;;;6.00;99.90;;;;;;476614;249;27542;-72
2024/02/26 02:55:40;;;;;;;2.30;1.62;;;6.10;99.90;;;;;;476661;249;27512;-72
2024/02/26 02:57:42;;;;;;;1.83;1.73;;;6.00;99.90;;;;;;476668;249;27593;-71
2024/02/26 02:59:43;;;;;;;1.80;1.70;;;6.00;99.90;;;;;;476717;249;27578;-74
2024/02/26 03:01:44;;;;;;;2.20;2.00;;;6.00;99.90;;;;;;476686;249;27603;-72
2024/02/26 03:03:45;;;;;;;1.60;1.50;;;6.00;99.90;;;;;;476675;249;28139;-72
2024/02/26 03:05:47;;;;;;;2.45;2.17;;;6.00;99.90;;;;;;476717;249;29367;-72
2024/02/26 03:07:48;;;;;;;1.75;1.60;;;6.00;99.90;;;;;;476726;249;27655;-72
2024/02/26 03:09:50;;;;;;;1.60;1.50;;;5.90;99.90;;;;;;476723;249;27530;-72
2024/02/26 03:11:51;;;;;;;1.60;1.50;;;5.90;99.90;;;;;;476719;249;27611;-72
2024/02/26 03:13:52;;;;;;;1.60;1.50;;;5.90;99.90;;;;;;476726;249;27553;-72
2024/02/26 03:15:53;;;;;;;1.50;1.40;;;5.80;99.90;;;;;;476764;249;28096;-73
2024/02/26 03:17:55;;;;;;;1.30;1.30;;;5.80;99.90;;;;;;476680;249;27974;-71
2024/02/26 03:19:56;;;;;;;1.37;1.30;;;5.90;99.90;;;;;;476712;249;27585;-72
2024/02/26 03:21:57;;;;;;;1.60;1.50;;;5.90;99.90;;;;;;476756;249;27633;-73
2024/02/26 03:23:58;;;;;;;1.50;1.40;;;5.80;99.90;;;;;;476732;249;27611;-73
2024/02/26 03:26:00;;;;;;;3.08;1.92;;;5.90;99.90;;;;;;476741;249;28043;-72
2024/02/26 03:28:01;;;;;;;1.57;1.47;;;5.80;99.90;;;;;;476684;249;28089;-71
2024/02/26 03:30:03;;;;;;;3.15;1.80;;;5.80;99.90;;;;;;476418;249;29488;-71
2024/02/26 03:32:03;;;;;;;2.33;1.90;;;5.80;99.90;;;;;;476659;249;28088;-75
2024/02/26 03:34:05;;;;;;;2.85;2.40;;;5.80;99.90;;;;;;476692;249;27586;-73
2024/02/26 03:36:07;;;;;;;3.05;1.80;;;5.80;99.90;;;;;;476743;249;27560;-74
2024/02/26 03:38:07;;;;;;;2.30;1.77;;;5.80;99.90;;;;;;476564;249;27521;-73
2024/02/26 03:40:09;;;;;;;3.57;2.20;;;5.80;99.90;;;;;;476730;249;27566;-74
2024/02/26 03:42:10;;;;;;;4.80;2.53;;;5.80;99.90;;;;;;476613;249;28919;-74
2024/02/26 03:44:11;;;;;;;3.85;1.40;;;5.80;99.90;;;;;;476708;245;29453;-71
2024/02/26 03:46:13;;;;;;;5.68;2.90;;;5.80;99.90;;;;;;476689;249;28060;-74
2024/02/26 03:48:13;;;;;;;6.95;2.60;;;5.90;99.90;;;;;;476577;249;27656;-73
2024/02/26 03:50:15;;;;;;;6.18;3.00;;;5.90;99.90;;;;;;476593;249;27514;-74
2024/02/26 03:52:16;;;;;;;2.58;2.00;;;5.90;99.90;;;;;;476638;249;27609;-78
2024/02/26 03:54:17;;;;;;;3.08;2.15;;;5.90;99.90;;;;;;476652;249;27565;-73
2024/02/26 03:56:18;;;;;;;5.55;2.05;;;5.90;99.90;;;;;;476633;249;27582;-73
2024/02/26 03:58:20;;;;;;;3.20;2.20;;;5.90;99.90;;;;;;476645;249;28137;-76
2024/02/26 04:00:21;;;;;;;8.18;3.75;;;5.90;99.90;;;;;;476699;246;29337;-71
2024/02/26 04:02:23;;;;;;;6.22;3.62;;;6.00;99.90;;;;;;476708;249;28038;-74
2024/02/26 04:04:23;;;;;;;6.17;3.10;;;5.90;99.90;;;;;;476664;249;27597;-72
2024/02/26 04:06:25;;;;;;;10.77;4.85;;;5.90;99.90;;;;;;476609;249;28961;-71
2024/02/26 04:08:26;;;;;;;8.88;4.70;;;6.00;99.90;;;;;;476701;249;27558;-73
2024/02/26 04:10:27;;;;;;;11.10;4.22;;;6.00;99.90;;;;;;476698;249;27531;-71
2024/02/26 04:12:28;;;;;;;10.68;4.37;;;6.00;99.90;;;;;;476625;249;27559;-74
2024/02/26 04:14:30;;;;;;;5.32;2.45;;;6.00;99.90;;;;;;476629;249;28775;-71
2024/02/26 04:16:31;;;;;;;7.55;4.18;;;6.00;99.90;;;;;;476738;249;27518;-73
2024/02/26 04:18:32;;;;;;;8.23;4.53;;;6.00;99.90;;;;;;476632;249;27582;-72
2024/02/26 04:20:34;;;;;;;7.57;4.43;;;6.00;99.90;;;;;;476677;249;27657;-71
2024/02/26 04:22:35;;;;;;;3.17;2.67;;;6.00;99.90;;;;;;476673;249;27776;-73
2024/02/26 04:24:36;;;;;;;6.93;3.13;;;6.00;99.90;;;;;;476701;249;28920;-74
2024/02/26 04:26:37;;;;;;;8.20;3.17;;;6.00;99.90;;;;;;476654;245;27626;-72
2024/02/26 04:28:39;;;;;;;4.63;3.00;;;6.00;99.90;;;;;;476663;249;29463;-74
2024/02/26 04:30:40;;;;;;;9.35;4.30;;;6.00;99.90;;;;;;476639;249;30067;-74
2024/02/26 04:32:41;;;;;;;9.77;5.00;;;6.00;99.90;;;;;;476686;249;27625;-74
2024/02/26 04:34:43;;;;;;;5.80;4.00;;;6.00;99.90;;;;;;476589;249;28931;-75
2024/02/26 04:36:44;;;;;;;11.02;5.20;;;6.00;99.90;;;;;;476651;249;27567;-73
2024/02/26 04:38:45;;;;;;;4.50;2.67;;;6.00;99.90;;;;;;476594;249;27660;-74
2024/02/26 04:40:46;;;;;;;7.32;4.12;;;6.00;99.90;;;;;;476601;249;28724;-74
2024/02/26 04:42:47;;;;;;;6.43;3.78;;;6.00;99.90;;;;;;476628;249;28071;-74
2024/02/26 04:44:49;;;;;;;4.32;2.87;;;6.00;99.90;;;;;;476734;245;27596;-72
2024/02/26 04:46:50;;;;;;;3.67;2.75;;;6.00;99.90;;;;;;476665;249;27514;-74
2024/02/26 04:48:51;;;;;;;3.20;2.90;;;6.00;99.90;;;;;;476684;249;27604;-70
2024/02/26 04:50:52;;;;;;;3.47;2.30;;;6.00;99.90;;;;;;476735;249;29043;-72
2024/02/26 04:52:54;;;;;;;3.58;3.15;;;6.00;99.90;;;;;;476732;249;28145;-71
2024/02/26 04:54:55;;;;;;;2.90;2.20;;;6.00;99.90;;;;;;476699;249;28092;-71
2024/02/26 04:56:56;;;;;;;2.30;2.10;;;6.00;99.90;;;;;;476515;249;27509;-74
2024/02/26 04:58:57;;;;;;;3.58;2.40;;;6.00;99.90;;;;;;476732;245;27621;-74
2024/02/26 05:00:59;;;;;;;3.35;2.03;;;5.90;99.90;;;;;;476701;249;27668;-75
2024/02/26 05:03:00;;;;;;;2.60;2.40;;;5.90;99.90;;;;;;476529;249;27649;-73
2024/02/26 05:05:02;;;;;;;2.90;2.47;;;6.00;99.90;;;;;;476662;249;28149;-74
2024/02/26 05:07:03;;;;;;;3.47;2.42;;;5.90;99.90;;;;;;476722;249;28768;-73
2024/02/26 05:09:04;;;;;;;2.75;2.55;;;6.00;99.90;;;;;;476735;249;27564;-73
2024/02/26 05:11:08;;;;;;;3.67;2.60;;;6.00;99.90;;;;;;476676;249;27661;-72
2024/02/26 05:13:06;;;;;;;2.00;1.80;;;6.00;99.90;;;;;;476437;249;27526;-72
2024/02/26 05:15:08;;;;;;;5.30;2.40;;;6.00;99.90;;;;;;476630;249;27624;-74
2024/02/26 05:17:09;;;;;;;2.30;1.70;;;6.00;99.90;;;;;;476685;249;27604;-74
2024/02/26 05:19:10;;;;;;;1.95;1.75;;;6.00;99.90;;;;;;476736;249;27507;-71
2024/02/26 05:21:11;;;;;;;2.15;1.90;;;6.00;99.90;;;;;;476708;249;27584;-72
2024/02/26 05:23:13;;;;;;;1.80;1.70;;;6.00;99.90;;;;;;476651;249;27582;-74
2024/02/26 05:25:14;;;;;;;1.60;1.50;;;6.00;99.90;;;;;;476729;245;27566;-73
2024/02/26 05:27:15;;;;;;;1.92;1.83;;;6.00;99.90;;;;;;476616;249;27607;-72
2024/02/26 05:29:16;;;;;;;1.20;1.20;;;6.00;99.90;;;;;;476683;249;27985;-73
2024/02/26 05:31:18;;;;;;;1.70;1.60;;;6.00;99.90;;;;;;476705;249;27602;-74
2024/02/26 05:33:19;;;;;;;1.92;1.80;;;6.10;99.90;;;;;;476741;245;27582;-74
2024/02/26 05:35:20;;;;;;;2.55;2.08;;;6.00;99.90;;;;;;476610;249;27589;-70
2024/02/26 05:37:22;;;;;;;2.10;1.90;;;6.00;99.90;;;;;;476699;249;27573;-71
2024/02/26 05:39:23;;;;;;;1.85;1.75;;;6.10;99.90;;;;;;476662;249;27602;-72
2024/02/26 05:41:26;;;;;;;2.10;1.90;;;6.10;99.90;;;;;;476316;245;28071;-72
2024/02/26 05:43:25;;;;;;;2.40;1.40;;;6.00;99.90;;;;;;476398;249;28918;-74
2024/02/26 05:45:26;;;;;;;1.47;1.37;;;6.00;99.90;;;;;;476536;246;28960;-72
2024/02/26 05:47:28;;;;;;;1.50;1.40;;;6.10;99.90;;;;;;476604;249;28912;-72
2024/02/26 05:49:29;;;;;;;1.87;1.75;;;6.00;99.90;;;;;;476631;249;27685;-74
2024/02/26 05:51:30;;;;;;;1.33;1.27;;;6.00;99.90;;;;;;477623;245;27975;-74
2024/02/26 05:53:32;;;;;;;1.15;1.15;;;6.00;99.90;;;;;;491624;242;27440;-72
2024/02/26 05:55:33;;;;;;;1.85;1.52;;;6.00;99.90;;;;;;491596;242;27907;-71
2024/02/26 05:57:34;;;;;;;1.60;1.50;;;6.10;99.90;;;;;;491684;242;27971;-74
2024/02/26 05:59:35;;;;;;;1.87;1.77;;;6.10;99.90;;;;;;491782;242;27520;-74
2024/02/26 06:01:37;;;;;;;1.42;1.33;;;6.00;99.90;;;;;;491738;242;27341;-73
2024/02/26 06:03:38;;;;;;;1.85;1.60;;;6.10;99.90;;;;;;491681;242;27545;-73
2024/02/26 06:05:39;;;;;;;1.58;1.48;;;6.10;99.90;;;;;;491774;242;27448;-71
2024/02/26 06:07:40;;;;;;;1.20;1.10;;;6.00;99.90;;;;;;491741;242;27355;-71
2024/02/26 06:09:42;;;;;;;1.40;1.30;;;6.00;99.90;;;;;;491688;242;27976;-73
2024/02/26 06:11:43;;;;;;;2.75;1.65;;;6.00;99.90;;;;;;491741;242;27437;-74
2024/02/26 06:13:44;;;;;;;1.50;1.40;;;6.00;99.90;;;;;;491588;242;27596;-73
2024/02/26 06:15:46;;;;;;;1.40;1.30;;;6.00;99.90;;;;;;491802;242;27477;-72
2024/02/26 06:17:47;;;;;;;2.05;1.40;;;6.00;99.90;;;;;;491630;242;27392;-71
2024/02/26 06:19:48;;;;;;;1.48;1.37;;;6.10;99.90;;;;;;491749;242;27440;-75
2024/02/26 06:21:50;;;;;;;1.37;1.27;;;6.10;99.90;;;;;;491681;242;27967;-71
2024/02/26 06:23:51;;;;;;;1.50;1.40;;;6.10;99.90;;;;;;491703;242;27995;-74
2024/02/26 06:25:52;;;;;;;1.67;1.13;;;6.10;99.90;;;;;;491746;241;27396;-71
2024/02/26 06:27:54;;;;;;;1.73;1.60;;;6.10;99.90;;;;;;491784;242;28843;-73
2024/02/26 06:29:54;;;;;;;1.23;1.12;;;6.10;99.90;;;;;;491321;242;28436;-74
2024/02/26 06:31:56;;;;;;;1.75;1.23;;;6.10;99.90;;;;;;491695;242;27621;-71
2024/02/26 06:33:57;;;;;;;1.52;1.42;;;6.10;99.90;;;;;;491768;242;27370;-74
2024/02/26 06:35:58;;;;;;;1.70;1.60;;;6.10;99.90;;;;;;491796;242;27498;-74
2024/02/26 06:37:59;;;;;;;1.55;1.45;;;6.10;99.90;;;;;;491731;242;29245;-71
2024/02/26 06:40:03;;;;;;;1.20;1.10;;;6.20;99.90;;;;;;491753;242;28071;-71
2024/02/26 06:42:02;;;;;;;1.33;1.23;;;6.20;99.90;;;;;;491604;242;28671;-75
2024/02/26 06:44:03;;;;;;;2.00;1.77;;;6.20;99.90;;;;;;491809;242;27330;-72
2024/02/26 06:46:04;;;;;;;3.42;2.00;;;6.20;99.90;;;;;;491810;242;27478;-73
2024/02/26 06:48:06;;;;;;;2.03;1.83;;;6.20;99.90;;;;;;491740;242;27458;-72
2024/02/26 06:50:07;;;;;;;4.77;2.30;;;6.30;99.90;;;;;;486881;242;27516;-72
2024/02/26 06:52:08;;;;;;;5.70;2.80;;;6.30;99.90;;;;;;484470;245;27873;-74
2024/02/26 06:54:09;;;;;;;3.70;1.75;;;6.30;99.90;;;;;;484411;245;28756;-72
2024/02/26 06:56:11;;;;;;;7.22;1.85;;;6.30;99.90;;;;;;484413;245;28120;-72
2024/02/26 06:58:12;;;;;;;6.85;2.40;;;6.30;99.90;;;;;;484427;245;27480;-72
2024/02/26 07:00:16;;;;;;;9.27;2.60;;;6.30;99.90;;;;;;484410;245;27498;-72
2024/02/26 07:02:16;;;;;;;5.87;2.80;;;6.30;99.90;;;;;;484331;245;27542;-73
2024/02/26 07:04:16;;;;;;;4.10;2.03;;;6.30;99.90;;;;;;484393;245;27618;-71
2024/02/26 07:06:17;;;;;;;10.23;2.60;;;6.30;99.90;;;;;;484318;245;28364;-73
2024/02/26 07:08:18;;;;;;;9.43;2.50;;;6.30;99.90;;;;;;484453;245;29353;-75
2024/02/26 07:10:19;;;;;;;26.05;4.95;;;6.30;99.90;;;;;;483852;245;29013;-74
2024/02/26 07:12:21;;;;;;;14.27;3.45;;;6.40;99.90;;;;;;483769;245;27633;-73
2024/02/26 07:14:22;;;;;;;11.07;3.83;;;6.40;99.90;;;;;;484227;245;27561;-73
2024/02/26 07:16:23;;;;;;;8.97;3.50;;;6.40;99.90;;;;;;484454;245;29043;-72
2024/02/26 07:18:25;;;;;;;14.13;5.40;;;6.50;99.90;;;;;;484385;245;28881;-74
2024/02/26 07:20:26;;;;;;;9.47;3.20;;;6.50;99.90;;;;;;484412;245;28596;-72
2024/02/26 07:22:27;;;;;;;24.07;8.67;;;6.60;99.90;;;;;;484428;245;28451;-72
2024/02/26 07:24:28;;;;;;;27.77;9.60;;;6.60;99.90;;;;;;484483;245;28077;-73
2024/02/26 07:26:30;;;;;;;14.10;6.90;;;6.70;99.90;;;;;;484259;245;29298;-72
2024/02/26 07:28:31;;;;;;;10.30;5.13;;;6.70;99.90;;;;;;484491;245;28360;-73
2024/02/26 07:30:32;;;;;;;14.30;6.77;;;6.70;99.90;;;;;;484395;245;28070;-72
2024/02/26 07:32:33;;;;;;;14.77;5.80;;;6.70;99.90;;;;;;484512;245;28600;-72
2024/02/26 07:34:35;;;;;;;7.77;4.27;;;6.80;99.90;;;;;;484500;245;28210;-72
2024/02/26 07:36:36;;;;;;;9.90;4.37;;;6.90;99.90;;;;;;484424;245;28664;-72
2024/02/26 07:38:37;;;;;;;6.47;3.10;;;6.90;99.90;;;;;;484209;245;28964;-75
2024/02/26 07:40:38;;;;;;;6.27;2.80;;;6.90;99.90;;;;;;484430;245;27766;-74
2024/02/26 07:42:40;;;;;;;4.73;3.13;;;7.00;99.90;;;;;;484354;245;27922;-73
2024/02/26 07:44:42;;;;;;;4.83;2.70;;;7.00;99.90;;;;;;484452;245;28006;-76
2024/02/26 07:46:42;;;;;;;4.90;2.87;;;7.00;99.90;;;;;;484276;245;28127;-76
2024/02/26 07:48:43;;;;;;;6.00;2.70;;;7.00;99.90;;;;;;484423;245;28002;-74
2024/02/26 07:50:45;;;;;;;7.90;2.67;;;7.10;99.90;;;;;;484482;245;28000;-73
2024/02/26 07:52:46;;;;;;;2.57;2.27;;;7.20;99.90;;;;;;484495;245;28543;-74
2024/02/26 07:54:47;;;;;;;4.80;2.60;;;7.20;99.90;;;;;;484494;245;28117;-73
2024/02/26 07:56:48;;;;;;;2.27;1.87;;;7.20;99.90;;;;;;484193;245;28437;-73
2024/02/26 07:58:50;;;;;;;1.90;1.50;;;7.10;99.90;;;;;;484108;244;28459;-73
2024/02/26 08:00:51;;;;;;;3.27;2.10;;;7.10;99.90;;;;;;484395;245;29265;-73
2024/02/26 08:02:52;;;;;;;2.60;1.80;;;7.20;99.90;;;;;;484423;245;28090;-73
2024/02/26 08:04:53;;;;;;;4.37;2.10;;;7.20;99.90;;;;;;484153;245;28110;-73
2024/02/26 08:06:55;;;;;;;1.13;1.13;;;7.30;99.90;;;;;;484302;245;27885;-73
2024/02/26 08:08:56;;;;;;;1.37;1.27;;;7.30;99.90;;;;;;484314;245;28877;-73
2024/02/26 08:10:57;;;;;;;3.13;1.33;;;7.30;99.90;;;;;;484390;245;27880;-73
2024/02/26 08:13:04;;;;;;;1.90;1.37;;;7.30;99.90;;;;;;484455;242;27947;-73
2024/02/26 08:15:00;;;;;;;1.20;1.10;;;7.40;99.90;;;;;;483864;245;27794;-74
2024/02/26 08:17:01;;;;;;;2.00;1.40;;;7.50;99.90;;;;;;484216;245;28003;-73
2024/02/26 08:19:02;;;;;;;1.10;1.10;;;7.60;99.90;;;;;;484406;245;28413;-72
2024/02/26 08:21:03;;;;;;;1.27;1.27;;;7.60;99.90;;;;;;484423;245;28211;-75
2024/02/26 08:23:05;;;;;;;1.97;1.60;;;7.60;99.90;;;;;;484380;242;27675;-76
2024/02/26 08:25:09;;;;;;;4.50;2.13;;;7.50;99.90;;;;;;484389;245;28050;-73
2024/02/26 08:27:08;;;;;;;1.80;1.20;;;7.60;99.90;;;;;;484241;245;27911;-75
2024/02/26 08:29:09;;;;;;;1.33;1.23;;;7.80;99.90;;;;;;484229;245;27935;-74
2024/02/26 08:31:10;;;;;;;1.60;1.37;;;7.90;99.90;;;;;;484418;245;28004;-73
2024/02/26 08:33:13;;;;;;;1.73;1.30;;;8.00;99.90;;;;;;484382;242;29279;-73
2024/02/26 08:35:13;;;;;;;10.17;5.10;;;7.90;99.90;;;;;;484324;245;28560;-73
2024/02/26 08:37:14;;;;;;;66.37;21.67;;;8.00;99.90;;;;;;484371;245;28347;-74
2024/02/26 08:39:17;;;;;;;22.00;8.83;;;8.10;99.90;;;;;;484466;245;27786;-74
2024/02/26 08:41:16;;;;;;;9.60;4.80;;;8.20;99.90;;;;;;484202;245;28025;-73
2024/02/26 08:43:19;;;;;;;25.60;13.70;;;8.30;99.90;;;;;;484276;245;27943;-73
2024/02/26 08:45:19;;;;;;;13.67;7.20;;;8.30;99.90;;;;;;484182;245;27832;-73
2024/02/26 08:47:20;;;;;;;13.03;8.43;;;8.30;99.90;;;;;;484318;245;28139;-74
2024/02/26 08:49:23;;;;;;;9.67;7.33;;;8.40;99.90;;;;;;484387;245;28153;-73
2024/02/26 08:51:23;;;;;;;8.27;5.40;;;8.40;99.90;;;;;;484259;245;28014;-74
2024/02/26 08:53:26;;;;;;;5.53;4.80;;;8.50;99.90;;;;;;484456;245;28268;-73
2024/02/26 08:55:25;;;;;;;2.93;2.27;;;8.50;99.90;;;;;;484286;245;28242;-73
2024/02/26 08:57:31;;;;;;;4.73;4.43;;;8.40;99.90;;;;;;484321;245;27923;-73
2024/02/26 08:59:31;;;;;;;4.40;3.80;;;8.30;99.90;;;;;;484285;242;28252;-73
2024/02/26 09:01:32;;;;;;;3.30;3.00;;;8.40;99.90;;;;;;484399;245;28520;-73
2024/02/26 09:03:33;;;;;;;2.23;2.13;;;8.60;99.90;;;;;;484401;245;27974;-74
2024/02/26 09:05:34;;;;;;;1.67;1.57;;;8.60;99.90;;;;;;484403;245;28095;-74
2024/02/26 09:07:36;;;;;;;1.47;1.30;;;8.60;99.90;;;;;;484301;245;27882;-74
2024/02/26 09:09:37;;;;;;;1.00;1.00;;;8.60;99.90;;;;;;484349;245;27996;-74
2024/02/26 09:11:39;;;;;;;1.23;1.23;;;8.80;99.90;;;;;;484481;245;27970;-73
2024/02/26 09:13:40;;;;;;;1.93;1.40;;;8.90;99.90;;;;;;484480;245;27592;-73
2024/02/26 09:15:41;;;;;;;1.50;1.40;;;9.00;99.90;;;;;;484352;245;28039;-73
2024/02/26 09:17:43;;;;;;;1.77;1.67;;;9.00;99.90;;;;;;484323;245;27964;-73
2024/02/26 09:19:44;;;;;;;1.43;1.13;;;9.10;99.90;;;;;;484178;245;27995;-73
2024/02/26 09:21:45;;;;;;;1.30;1.20;;;9.10;99.90;;;;;;482756;245;28157;-73
2024/02/26 09:23:46;;;;;;;1.77;1.10;;;9.20;99.90;;;;;;484403;245;27860;-73
2024/02/26 09:25:47;;;;;;;1.17;1.10;;;9.30;99.90;;;;;;484385;245;28033;-76
2024/02/26 09:27:49;;;;;;;1.27;1.17;;;9.40;99.90;;;;;;476618;245;28200;-75
2024/02/26 09:29:50;;;;;;;1.00;0.90;;;9.40;99.90;;;;;;476905;249;28106;-73
2024/02/26 09:31:51;;;;;;;0.90;0.90;;;9.50;99.90;;;;;;468047;251;27975;-74
2024/02/26 09:33:52;;;;;;;1.00;1.00;;;9.60;99.90;;;;;;476910;249;27988;-73
2024/02/26 09:35:54;;;;;;;1.03;0.93;;;9.70;99.90;;;;;;466726;250;28421;-73
2024/02/26 09:37:55;;;;;;;1.00;1.00;;;9.80;99.90;;;;;;474152;249;28374;-75
2024/02/26 09:39:56;;;;;;;1.00;1.00;;;9.90;99.90;;;;;;474142;249;28451;-74
2024/02/26 09:41:59;;;;;;;1.10;1.10;;;9.90;99.90;;;;;;473820;251;28564;-73
2024/02/26 09:43:59;;;;;;;0.97;0.97;;;9.90;99.90;;;;;;473857;249;28328;-73
2024/02/26 09:46:00;;;;;;;0.90;0.90;;;10.00;99.90;;;;;;474184;249;28738;-73
2024/02/26 09:48:01;;;;;;;1.00;0.90;;;10.10;99.90;;;;;;474201;249;27831;-75
2024/02/26 09:50:03;;;;;;;1.27;1.10;;;10.20;99.90;;;;;;474199;249;27880;-73
2024/02/26 09:52:04;;;;;;;1.30;1.20;;;10.20;99.90;;;;;;474184;249;27957;-74
2024/02/26 09:54:05;;;;;;;1.10;1.10;;;10.30;99.90;;;;;;474151;249;28097;-73
2024/02/26 09:56:06;;;;;;;1.27;1.17;;;10.40;99.90;;;;;;474207;249;28192;-73
2024/02/26 09:58:07;;;;;;;0.90;0.90;;;10.40;99.90;;;;;;474207;249;27963;-74
2024/02/26 10:00:09;;;;;;;1.13;1.00;;;10.60;99.90;;;;;;474188;249;28026;-73
2024/02/26 10:02:10;;;;;;;0.90;0.90;;;10.50;99.90;;;;;;474135;249;28198;-73
2024/02/26 10:04:11;;;;;;;1.00;1.00;;;10.50;99.90;;;;;;475342;242;29379;-73
2024/02/26 10:06:12;;;;;;;0.83;0.83;;;10.40;99.90;;;;;;476455;249;28558;-73
2024/02/26 10:08:14;;;;;;;1.00;1.00;;;10.50;99.90;;;;;;476360;249;28544;-74
2024/02/26 10:10:15;;;;;;;1.33;1.00;;;10.40;99.90;;;;;;476308;249;28022;-73
2024/02/26 10:12:17;;;;;;;0.90;0.90;;;10.40;99.90;;;;;;476373;249;28294;-72
2024/02/26 10:14:18;;;;;;;1.00;1.00;;;10.50;99.90;;;;;;476465;249;28261;-74
2024/02/26 10:16:19;;;;;;;1.83;1.10;;;10.40;99.90;;;;;;476396;249;28023;-73
2024/02/26 10:18:20;;;;;;;0.90;0.90;;;10.50;99.90;;;;;;476419;249;28192;-74
2024/02/26 10:20:26;;;;;;;0.90;0.90;;;10.60;99.90;;;;;;476452;249;27899;-73
2024/02/26 10:22:25;;;;;;;2.10;1.37;;;10.70;99.90;;;;;;476348;249;28098;-74
2024/02/26 10:24:27;;;;;;;0.90;0.90;;;10.50;99.90;;;;;;476348;249;27980;-73
2024/02/26 10:26:28;;;;;;;1.00;1.00;;;10.50;99.90;;;;;;476429;249;28185;-72
2024/02/26 10:28:29;;;;;;;0.90;0.90;;;10.60;99.90;;;;;;476485;249;28038;-73
2024/02/26 10:30:30;;;;;;;1.00;0.90;;;10.80;99.90;;;;;;476529;249;28690;-73
2024/02/26 10:32:32;;;;;;;3.47;2.10;;;10.90;99.90;;;;;;476349;249;28667;-75
2024/02/26 10:34:33;;;;;;;1.23;1.13;;;10.90;99.90;;;;;;476322;249;28131;-73
2024/02/26 10:36:35;;;;;;;3.37;1.43;;;10.80;99.90;;;;;;476315;249;28508;-74
2024/02/26 10:38:36;;;;;;;1.60;0.90;;;11.00;99.90;;;;;;476276;249;28840;-75